Time;durP1;ratioP1;P1;durP2;ratioP2;P2;SDS_P1;SDS_P2;PMS_P1;PMS_P2;Temp;Humidity;BMP_temperature;BMP_pressure;BME280_temperature;BME280_humidity;BME280_pressure;Samples;Min_cycle;Max_cycle;Signal;HPM_P1;HPM_P2
2022/12/21 00:00:03;;;;;;;35.70;21.50;;;;;;;2.73;78.58;100532.39;100024;1372;545120;-71
2022/12/21 00:02:40;;;;;;;38.00;21.60;;;;;;;2.65;78.66;100536.20;102276;1342;38890;-72
2022/12/21 00:05:15;;;;;;;34.90;21.10;;;;;;;2.61;78.69;100535.02;103010;1332;37405;-71
2022/12/21 00:07:52;;;;;;;40.40;22.70;;;;;;;2.58;78.58;100534.84;103055;1318;37206;-69
2022/12/21 00:10:26;;;;;;;37.40;22.10;;;;;;;2.56;78.93;100521.95;102994;1318;36414;-69
2022/12/21 00:13:00;;;;;;;34.30;21.50;;;;;;;2.54;79.01;100521.25;102762;1331;475900;-71
2022/12/21 00:15:42;;;;;;;36.30;21.10;;;;;;;2.49;78.69;100522.83;103145;1329;38875;-69
2022/12/21 00:18:19;;;;;;;35.30;20.70;;;;;;;2.44;78.99;100519.91;103247;1326;37234;-73
2022/12/21 00:21:06;;;;;;;38.70;22.20;;;;;;;2.42;79.08;100521.12;103178;1325;37380;-72
2022/12/21 00:23:43;;;;;;;36.70;22.50;;;;;;;2.41;79.23;100520.09;103195;1326;36324;-71
2022/12/21 00:26:22;;;;;;;36.40;21.30;;;;;;;2.33;79.05;100526.13;103181;1326;36512;-69
2022/12/21 00:28:57;;;;;;;37.20;20.10;;;;;;;2.28;79.21;100528.36;103176;1329;37207;-72
2022/12/21 00:31:34;;;;;;;35.70;20.90;;;;;;;2.25;79.20;100523.57;103111;1329;37495;-70
2022/12/21 00:34:17;;;;;;;36.70;21.80;;;;;;;2.22;79.38;100519.09;103135;1326;37217;-71
2022/12/21 00:36:54;;;;;;;37.30;21.70;;;;;;;2.24;79.59;100522.88;103115;1326;37251;-71
2022/12/21 00:39:28;;;;;;;38.50;21.50;;;;;;;2.24;79.56;100529.23;103110;1326;37617;-71
2022/12/21 00:42:03;;;;;;;37.00;21.20;;;;;;;2.26;79.67;100531.81;103119;1329;38303;-71
2022/12/21 00:44:36;;;;;;;36.20;20.20;;;;;;;2.27;79.65;100522.18;103113;1329;37243;-71
2022/12/21 00:47:14;;;;;;;37.60;21.50;;;;;;;2.26;79.82;100517.36;103137;1314;37507;-71
2022/12/21 00:49:52;;;;;;;40.30;23.30;;;;;;;2.25;79.74;100517.71;103143;1327;37389;-73
2022/12/21 00:52:27;;;;;;;39.40;22.70;;;;;;;2.21;79.63;100524.61;103087;1326;175166;-71
2022/12/21 00:55:05;;;;;;;37.00;21.60;;;;;;;2.20;79.74;100523.56;103136;1326;37202;-71
2022/12/21 00:57:41;;;;;;;34.80;20.40;;;;;;;2.22;79.83;100519.62;103155;1326;36431;-71
2022/12/21 01:00:22;;;;;;;39.40;21.60;;;;;;;2.25;79.96;100517.01;103173;1325;37138;-71
2022/12/21 01:02:56;;;;;;;39.30;22.30;;;;;;;2.30;79.88;100510.98;103223;1330;37197;-70
2022/12/21 01:05:32;;;;;;;37.40;22.10;;;;;;;2.31;79.79;100505.30;103156;1326;37248;-70
2022/12/21 01:08:09;;;;;;;36.20;21.00;;;;;;;2.32;79.60;100494.45;103193;1329;37417;-69
2022/12/21 01:10:45;;;;;;;35.40;21.20;;;;;;;2.34;79.67;100492.05;103173;1329;37195;-71
2022/12/21 01:13:19;;;;;;;34.40;20.60;;;;;;;2.33;79.65;100490.67;103167;1326;37176;-70
2022/12/21 01:15:55;;;;;;;38.20;22.40;;;;;;;2.39;79.66;100493.92;103149;1329;37226;-69
2022/12/21 01:18:29;;;;;;;36.80;21.20;;;;;;;2.45;79.61;100502.66;103131;1329;36232;-70
2022/12/21 01:21:06;;;;;;;35.60;22.20;;;;;;;2.49;79.64;100510.94;103114;1328;36254;-70
2022/12/21 01:23:43;;;;;;;33.90;21.00;;;;;;;2.49;79.37;100518.17;103135;1329;37215;-71
2022/12/21 01:26:20;;;;;;;33.20;21.20;;;;;;;2.50;79.38;100527.81;103116;1329;37542;-69
2022/12/21 01:28:54;;;;;;;35.30;21.30;;;;;;;2.52;79.35;100529.71;103122;1326;37425;-69
2022/12/21 01:31:33;;;;;;;38.80;21.00;;;;;;;2.54;79.27;100520.39;103107;1329;37143;-71
2022/12/21 01:34:14;;;;;;;35.60;21.70;;;;;;;2.56;79.20;100520.04;103151;1326;37371;-72
2022/12/21 01:36:49;;;;;;;34.20;21.00;;;;;;;2.54;79.16;100519.19;103064;1331;37069;-72
2022/12/21 01:39:31;;;;;;;33.90;19.40;;;;;;;2.54;79.04;100516.95;103134;1329;38423;-72
2022/12/21 01:42:06;;;;;;;36.50;21.50;;;;;;;2.56;78.93;100505.05;103128;1329;36552;-72
2022/12/21 01:45:19;;;;;;;35.90;21.00;;;;;;;2.58;78.76;100492.31;103113;1326;37211;-71
2022/12/21 01:48:02;;;;;;;36.70;21.30;;;;;;;2.57;78.43;100475.61;103108;1329;37400;-72
2022/12/21 01:50:44;;;;;;;32.20;19.50;;;;;;;2.54;78.56;100465.63;103175;1329;37412;-72
2022/12/21 01:53:24;;;;;;;31.60;19.40;;;;;;;2.51;78.19;100463.58;103191;1326;37244;-70
2022/12/21 01:55:59;;;;;;;;;;;;;;;2.50;78.25;100448.60;103131;1326;37206;-72
2022/12/21 01:58:38;;;;;;;33.80;19.70;;;;;;;2.47;78.29;100450.68;103174;1329;37543;-71
2022/12/21 02:01:18;;;;;;;37.00;21.10;;;;;;;2.52;78.58;100445.16;103128;1326;37230;-72
2022/12/21 02:03:53;;;;;;;36.60;21.10;;;;;;;2.52;78.20;100442.91;103130;1325;37168;-71
2022/12/21 02:06:32;;;;;;;34.20;21.20;;;;;;;2.49;78.02;100437.76;103106;1326;37367;-70
2022/12/21 02:09:06;;;;;;;35.90;19.90;;;;;;;2.48;78.23;100434.83;103114;1329;37285;-72
2022/12/21 02:11:40;;;;;;;31.30;19.20;;;;;;;2.47;78.17;100436.04;103113;1326;36421;-70
2022/12/21 02:14:16;;;;;;;32.10;19.50;;;;;;;2.47;78.02;100421.05;103123;1327;36431;-71
2022/12/21 02:17:01;;;;;;;35.30;20.70;;;;;;;2.49;78.04;100412.80;103110;1326;38203;-71
2022/12/21 02:20:24;;;;;;;34.50;19.90;;;;;;;2.52;77.86;100421.91;103129;1326;37135;-74
2022/12/21 02:23:24;;;;;;;31.90;18.60;;;;;;;2.52;77.92;100428.98;102916;1329;37216;-72
2022/12/21 02:26:23;;;;;;;32.90;19.30;;;;;;;2.54;77.99;100457.19;103152;1329;37737;-72
2022/12/21 02:30:00;;;;;;;33.50;19.80;;;;;;;2.57;78.05;100458.05;103082;1326;173025;-73
2022/12/21 02:32:45;;;;;;;33.20;19.60;;;;;;;2.63;78.14;100457.86;103006;1330;37317;-71
2022/12/21 02:35:31;;;;;;;38.10;21.60;;;;;;;2.65;77.84;100472.83;103149;1329;39540;-71
2022/12/21 02:38:19;;;;;;;37.00;20.80;;;;;;;2.64;77.87;100458.02;103108;1330;37267;-72
2022/12/21 02:40:59;;;;;;;31.70;18.60;;;;;;;2.63;77.59;100446.14;103134;1326;36388;-71
2022/12/21 02:46:35;;;;;;;33.60;20.10;;;;;;;2.67;77.64;100446.98;103150;1329;37270;-71
2022/12/21 02:49:15;;;;;;;35.50;20.90;;;;;;;2.67;77.35;100448.02;103201;1328;38334;-71
2022/12/21 02:51:58;;;;;;;33.70;20.60;;;;;;;2.65;77.37;100453.55;103202;1325;37504;-71
2022/12/21 02:54:32;;;;;;;32.60;19.40;;;;;;;2.61;77.25;100461.99;103194;1328;37130;-72
2022/12/21 02:57:06;;;;;;;32.10;19.50;;;;;;;2.57;77.50;100470.44;103100;1325;176262;-72
2022/12/21 02:59:43;;;;;;;31.80;18.80;;;;;;;2.56;77.35;100464.08;103189;1329;37202;-73
2022/12/21 03:02:42;;;;;;;32.10;19.90;;;;;;;2.57;77.46;100467.34;103169;1329;37198;-72
2022/12/21 03:05:38;;;;;;;36.10;20.40;;;;;;;2.58;77.50;100458.90;103230;1329;37584;-71
2022/12/21 03:08:19;;;;;;;34.70;18.90;;;;;;;2.54;77.32;100448.60;103257;1325;37339;-72
2022/12/21 03:11:02;;;;;;;34.10;19.60;;;;;;;2.51;77.38;100442.90;103200;1329;37330;-71
2022/12/21 03:13:42;;;;;;;32.40;18.70;;;;;;;2.53;77.47;100441.88;103226;1326;36968;-70
2022/12/21 03:16:23;;;;;;;35.70;20.40;;;;;;;2.55;77.47;100440.30;103216;1329;37309;-69
2022/12/21 03:19:04;;;;;;;34.30;19.90;;;;;;;2.59;77.61;100442.36;103233;1329;37352;-71
2022/12/21 03:21:40;;;;;;;37.70;21.00;;;;;;;2.62;77.62;100444.77;103221;1329;36318;-71
2022/12/21 03:24:17;;;;;;;35.20;20.10;;;;;;;2.61;77.42;100435.80;103225;1329;37152;-71
2022/12/21 03:26:56;;;;;;;33.70;19.40;;;;;;;2.58;77.12;100449.26;103179;1326;37242;-71
2022/12/21 03:29:37;;;;;;;30.40;19.20;;;;;;;2.53;77.25;100450.15;103136;1326;38782;-71
2022/12/21 03:32:15;;;;;;;34.00;20.80;;;;;;;2.54;77.45;100444.10;103152;1329;37566;-71
2022/12/21 03:34:51;;;;;;;34.60;20.30;;;;;;;2.57;77.31;100447.38;103156;1327;37325;-70
2022/12/21 03:37:27;;;;;;;35.70;19.70;;;;;;;2.56;77.25;100446.00;103130;1329;37385;-71
2022/12/21 03:40:04;;;;;;;33.70;20.20;;;;;;;2.54;77.41;100450.13;103186;1326;38279;-71
2022/12/21 03:42:41;;;;;;;31.50;18.90;;;;;;;2.52;77.33;100444.98;103147;1329;37351;-72
2022/12/21 03:45:23;;;;;;;31.90;19.80;;;;;;;2.47;77.25;100438.28;103160;1326;38317;-70
2022/12/21 03:48:02;;;;;;;34.90;20.40;;;;;;;2.47;77.24;100429.50;103207;1326;37206;-71
2022/12/21 03:50:39;;;;;;;36.20;20.80;;;;;;;2.48;77.46;100398.85;103181;1327;37892;-70
2022/12/21 03:53:23;;;;;;;37.80;20.80;;;;;;;2.49;77.49;100392.30;103213;1326;37738;-71
2022/12/21 03:55:58;;;;;;;35.40;20.60;;;;;;;2.49;77.36;100400.57;103212;1326;37517;-71
2022/12/21 03:58:34;;;;;;;34.30;20.50;;;;;;;2.47;77.34;100398.86;103243;1326;37121;-71
2022/12/21 04:01:16;;;;;;;34.70;20.70;;;;;;;2.48;77.51;100376.98;103228;1326;37147;-72
2022/12/21 04:03:55;;;;;;;36.20;21.00;;;;;;;2.51;77.53;100370.26;103211;1329;37211;-72
2022/12/21 04:06:37;;;;;;;33.60;20.70;;;;;;;2.54;77.37;100371.79;103241;1326;37299;-71
2022/12/21 04:09:14;;;;;;;38.30;21.80;;;;;;;2.54;77.37;100346.65;103187;1326;36702;-70
2022/12/21 04:14:46;;;;;;;34.40;19.80;;;;;;;2.45;77.30;100335.33;103155;1329;37459;-70
2022/12/21 04:17:20;;;;;;;29.90;18.20;;;;;;;2.43;77.26;100346.88;103159;1326;37694;-71
2022/12/21 04:20:00;;;;;;;33.90;20.40;;;;;;;2.44;77.42;100361.34;103153;1329;37215;-71
2022/12/21 04:28:26;;;;;;;36.50;20.70;;;;;;;2.35;77.26;100362.58;103220;1326;38604;-71
2022/12/21 04:31:00;;;;;;;31.80;19.20;;;;;;;2.31;77.28;100371.20;103174;1327;37557;-71
2022/12/21 04:33:35;;;;;;;34.00;19.40;;;;;;;2.30;77.48;100383.25;103218;1326;37415;-70
2022/12/21 04:39:06;;;;;;;33.70;20.40;;;;;;;2.34;77.43;100381.17;103206;1329;37230;-71
2022/12/21 04:41:43;;;;;;;37.30;21.60;;;;;;;2.29;77.38;100372.23;103212;1326;37310;-71
2022/12/21 04:44:18;;;;;;;35.40;21.40;;;;;;;2.28;77.38;100374.83;103239;1329;37221;-71
2022/12/21 04:46:52;;;;;;;35.80;20.70;;;;;;;2.27;77.32;100381.89;103247;1326;37249;-71
2022/12/21 04:49:29;;;;;;;33.50;19.50;;;;;;;2.26;77.44;100381.73;103258;1326;36778;-71
2022/12/21 04:52:03;;;;;;;35.10;21.00;;;;;;;2.24;77.24;100374.34;103239;1326;37048;-71
2022/12/21 04:54:40;;;;;;;34.40;21.10;;;;;;;2.24;77.43;100367.80;103226;1329;37394;-70
2022/12/21 04:57:13;;;;;;;36.70;22.00;;;;;;;2.25;77.54;100358.15;103157;1326;37261;-72
2022/12/21 04:59:50;;;;;;;36.80;21.50;;;;;;;2.24;77.44;100361.25;103169;1329;38035;-71
2022/12/21 05:02:27;;;;;;;;;;;;;;;2.23;77.41;100359.54;103274;1326;38695;-71
2022/12/21 05:05:01;;;;;;;35.20;20.30;;;;;;;2.18;77.52;100359.89;103070;1326;175196;-69
2022/12/21 05:07:35;;;;;;;35.30;22.10;;;;;;;2.20;77.61;100355.41;103196;1329;37345;-72
2022/12/21 05:10:13;;;;;;;40.90;21.40;;;;;;;2.20;77.42;100345.09;103197;1326;37215;-72
2022/12/21 05:12:49;;;;;;;42.40;23.60;;;;;;;2.20;77.58;100334.08;103193;1329;37384;-71
2022/12/21 05:15:25;;;;;;;34.70;20.30;;;;;;;2.19;77.57;100327.88;103195;1329;36182;-72
2022/12/21 05:18:07;;;;;;;36.80;20.10;;;;;;;2.17;77.46;100330.13;103240;1329;37236;-71
2022/12/21 05:20:41;;;;;;;36.00;21.10;;;;;;;2.14;77.21;100327.39;103185;1329;37212;-71
2022/12/21 05:23:20;;;;;;;37.60;22.00;;;;;;;2.13;77.53;100326.20;103254;1326;36528;-72
2022/12/21 05:25:55;;;;;;;36.90;21.60;;;;;;;2.14;77.42;100321.02;103234;1329;36602;-72
2022/12/21 05:28:30;;;;;;;40.20;22.20;;;;;;;2.14;77.58;100322.57;103198;1329;37224;-71
2022/12/21 05:31:07;;;;;;;36.60;21.70;;;;;;;2.12;77.47;100318.63;103235;1328;37190;-71
2022/12/21 05:33:43;;;;;;;35.60;20.40;;;;;;;2.11;77.38;100321.20;103222;1326;37297;-71
2022/12/21 05:36:19;;;;;;;34.20;19.80;;;;;;;2.11;77.39;100326.71;103207;1329;37267;-71
2022/12/21 05:38:53;;;;;;;36.80;20.80;;;;;;;2.13;77.50;100326.20;103223;1326;36487;-70
2022/12/21 05:41:31;;;;;;;38.50;22.70;;;;;;;2.18;77.52;100321.35;103195;1327;37413;-72
2022/12/21 05:44:06;;;;;;;40.20;22.80;;;;;;;2.20;77.50;100326.85;103186;1329;37326;-71
2022/12/21 05:46:40;;;;;;;40.60;21.80;;;;;;;2.19;77.48;100337.88;103111;1326;175110;-69
2022/12/21 05:49:20;;;;;;;35.80;20.40;;;;;;;2.23;77.55;100347.50;103166;1328;36699;-72
2022/12/21 05:51:57;;;;;;;35.30;20.50;;;;;;;2.22;77.55;100365.58;103161;1326;38514;-70
2022/12/21 05:54:30;;;;;;;37.60;21.50;;;;;;;2.24;77.58;100369.00;103153;1326;37202;-71
2022/12/21 05:57:04;;;;;;;41.00;23.30;;;;;;;2.25;77.34;100371.56;103176;1326;37083;-72
2022/12/21 05:59:41;;;;;;;39.10;22.80;;;;;;;2.26;77.51;100369.34;103142;1329;37219;-71
2022/12/21 06:02:16;;;;;;;34.80;20.60;;;;;;;2.26;77.37;100366.05;103190;1327;37233;-71
2022/12/21 06:04:50;;;;;;;35.10;21.30;;;;;;;2.24;77.15;100373.98;102525;1326;915572;-72
2022/12/21 06:07:24;;;;;;;38.60;22.30;;;;;;;2.23;77.32;100386.23;103175;1326;37776;-71
2022/12/21 06:09:59;;;;;;;40.30;23.30;;;;;;;2.24;77.46;100387.77;103168;1329;37641;-73
2022/12/21 06:12:34;;;;;;;39.90;23.90;;;;;;;2.27;77.36;100387.76;103192;1326;37488;-72
2022/12/21 06:15:13;;;;;;;37.40;22.20;;;;;;;2.28;77.29;100387.05;103152;1329;38609;-71
2022/12/21 06:17:47;;;;;;;39.70;21.70;;;;;;;2.27;77.17;100377.59;103180;1329;38605;-72
2022/12/21 06:20:23;;;;;;;36.30;21.50;;;;;;;2.26;77.10;100373.81;103121;1329;38302;-73
2022/12/21 06:22:57;;;;;;;39.50;22.30;;;;;;;2.23;77.20;100374.34;103105;1329;173001;-71
2022/12/21 06:25:37;;;;;;;40.10;22.70;;;;;;;2.26;77.30;100381.73;103221;1328;37218;-71
2022/12/21 06:28:14;;;;;;;39.70;24.40;;;;;;;2.27;77.12;100387.07;103227;1329;37207;-70
2022/12/21 06:30:52;;;;;;;39.80;23.10;;;;;;;2.29;77.24;100382.58;103191;1329;37233;-71
2022/12/21 06:33:27;;;;;;;36.10;22.60;;;;;;;2.28;77.08;100388.26;103163;1329;37319;-71
2022/12/21 06:36:07;;;;;;;39.50;21.80;;;;;;;2.29;77.33;100398.59;103172;1329;37186;-71
2022/12/21 06:38:44;;;;;;;38.90;22.10;;;;;;;2.30;77.29;100396.67;103191;1326;38909;-71
2022/12/21 06:41:20;;;;;;;39.00;22.20;;;;;;;2.33;77.14;100392.04;103161;1326;37218;-71
2022/12/21 06:43:55;;;;;;;39.80;22.70;;;;;;;2.35;77.29;100390.30;103153;1325;36583;-73
2022/12/21 06:46:29;;;;;;;38.90;22.50;;;;;;;2.37;77.28;100396.84;103194;1328;38083;-73
2022/12/21 06:49:04;;;;;;;39.50;22.50;;;;;;;2.33;77.02;100394.61;103104;1325;38249;-70
2022/12/21 06:51:38;;;;;;;37.20;21.80;;;;;;;2.34;77.12;100384.45;103152;1328;37194;-71
2022/12/21 06:54:14;;;;;;;35.10;21.60;;;;;;;2.36;77.18;100393.39;103185;1329;37489;-71
2022/12/21 06:56:50;;;;;;;38.10;22.60;;;;;;;2.37;77.19;100396.15;103172;1328;37278;-73
2022/12/21 06:59:30;;;;;;;35.10;21.60;;;;;;;2.41;77.38;100387.69;103176;1326;37594;-69
2022/12/21 07:02:04;;;;;;;40.60;23.90;;;;;;;2.41;77.13;100386.66;103156;1329;37775;-70
2022/12/21 07:04:42;;;;;;;39.60;22.00;;;;;;;2.41;77.26;100381.31;103196;1326;37237;-71
2022/12/21 07:07:21;;;;;;;37.70;21.20;;;;;;;2.44;77.08;100378.90;103221;1329;36875;-70
2022/12/21 07:09:55;;;;;;;37.10;20.80;;;;;;;2.45;77.04;100370.80;103221;1329;37427;-72
2022/12/21 07:12:36;;;;;;;39.50;22.40;;;;;;;2.46;76.91;100366.31;103271;1325;37121;-72
2022/12/21 07:15:18;;;;;;;39.00;22.50;;;;;;;2.47;77.07;100360.63;103078;1329;174679;-71
2022/12/21 07:17:52;;;;;;;41.30;23.60;;;;;;;2.44;76.73;100356.52;103226;1329;38626;-72
2022/12/21 07:20:27;;;;;;;38.30;22.50;;;;;;;2.44;76.91;100358.23;103196;1330;37316;-70
2022/12/21 07:23:04;;;;;;;34.70;21.10;;;;;;;2.45;76.75;100354.61;103206;1329;37243;-71
2022/12/21 07:25:38;;;;;;;35.90;21.20;;;;;;;2.47;77.06;100347.90;103172;1326;37138;-71
2022/12/21 07:28:15;;;;;;;36.60;21.80;;;;;;;2.47;76.71;100347.02;103194;1325;37218;-72
2022/12/21 07:30:49;;;;;;;39.30;23.40;;;;;;;2.47;76.79;100351.67;103143;1329;37394;-70
2022/12/21 07:33:24;;;;;;;39.80;23.20;;;;;;;2.49;76.91;100351.33;103179;1326;37231;-70
2022/12/21 07:36:01;;;;;;;36.40;22.20;;;;;;;2.54;77.10;100348.36;103067;1326;172954;-72
2022/12/21 07:38:38;;;;;;;35.70;21.00;;;;;;;2.55;76.93;100343.86;103213;1326;37279;-70
2022/12/21 07:41:16;;;;;;;37.10;22.10;;;;;;;2.57;76.75;100345.77;103147;1326;37139;-71
2022/12/21 07:43:50;;;;;;;38.90;22.80;;;;;;;2.61;76.95;100355.21;103159;1326;37837;-73
2022/12/21 07:46:25;;;;;;;36.70;21.60;;;;;;;2.63;76.69;100363.46;103220;1329;37310;-75
2022/12/21 07:48:59;;;;;;;36.10;22.20;;;;;;;2.66;76.65;100366.20;103233;1329;37130;-69
2022/12/21 07:51:34;;;;;;;36.40;21.40;;;;;;;2.65;76.54;100367.42;103184;1326;37361;-69
2022/12/21 07:54:14;;;;;;;34.20;20.00;;;;;;;2.67;76.53;100366.04;103224;1326;37456;-68
2022/12/21 07:56:51;;;;;;;34.90;20.00;;;;;;;2.70;76.38;100365.15;103198;1326;38296;-70
2022/12/21 07:59:28;;;;;;;35.10;21.70;;;;;;;2.68;76.32;100359.30;103194;1326;37429;-71
2022/12/21 08:02:04;;;;;;;34.70;20.50;;;;;;;2.72;76.37;100354.98;103257;1326;37243;-72
2022/12/21 08:04:39;;;;;;;34.90;21.20;;;;;;;2.74;76.48;100342.39;103164;1326;37122;-71
2022/12/21 08:07:15;;;;;;;36.20;21.50;;;;;;;2.75;76.50;100343.23;103156;1329;37225;-73
2022/12/21 08:09:54;;;;;;;31.10;19.10;;;;;;;2.79;76.40;100346.31;103154;1326;37372;-72
2022/12/21 08:12:35;;;;;;;33.80;19.20;;;;;;;2.79;75.83;100344.94;102798;1329;500358;-68
2022/12/21 08:15:14;;;;;;;35.70;20.30;;;;;;;2.78;75.70;100348.56;103177;1329;37232;-70
2022/12/21 08:17:53;;;;;;;34.50;21.10;;;;;;;2.78;75.72;100345.29;103219;1326;36883;-70
2022/12/21 08:20:33;;;;;;;36.10;21.50;;;;;;;2.87;76.09;100345.06;103162;1329;37133;-69
2022/12/21 08:23:07;;;;;;;33.80;20.30;;;;;;;2.94;75.88;100341.39;103198;1329;37112;-69
2022/12/21 08:25:42;;;;;;;31.80;19.30;;;;;;;2.98;75.84;100341.19;103161;1329;37220;-69
2022/12/21 08:28:16;;;;;;;33.50;19.70;;;;;;;3.02;75.77;100339.44;103076;1330;175212;-70
2022/12/21 08:30:53;;;;;;;34.20;19.90;;;;;;;3.08;75.87;100335.42;103113;1326;37320;-72
2022/12/21 08:33:36;;;;;;;35.70;21.50;;;;;;;3.10;75.39;100332.48;103192;1329;37189;-69
2022/12/21 08:36:21;;;;;;;37.90;21.40;;;;;;;3.10;75.20;100330.56;103182;1326;37221;-70
2022/12/21 08:38:58;;;;;;;35.10;20.10;;;;;;;3.15;75.29;100334.16;103220;1328;36242;-71
2022/12/21 08:41:35;;;;;;;36.90;20.20;;;;;;;3.20;75.18;100341.01;103218;1329;37261;-70
2022/12/21 08:44:12;;;;;;;34.00;20.10;;;;;;;3.25;75.20;100335.27;103277;1326;36811;-70
2022/12/21 08:46:47;;;;;;;36.60;19.80;;;;;;;3.30;75.17;100335.92;103198;1329;37337;-71
2022/12/21 08:49:25;;;;;;;41.10;21.30;;;;;;;3.34;74.73;100330.36;103209;1326;38738;-71
2022/12/21 08:52:03;;;;;;;37.80;21.00;;;;;;;3.35;74.54;100327.09;103233;1328;37192;-70
2022/12/21 08:54:40;;;;;;;39.00;21.30;;;;;;;3.36;74.41;100323.46;103227;1329;37063;-71
2022/12/21 08:57:14;;;;;;;31.40;19.60;;;;;;;3.39;74.49;100325.15;103251;1327;37259;-69
2022/12/21 08:59:50;;;;;;;37.40;19.90;;;;;;;3.46;74.91;100324.58;103222;1326;37231;-68
2022/12/21 09:02:24;;;;;;;35.10;21.10;;;;;;;3.52;74.50;100321.05;103183;1325;36487;-71
2022/12/21 09:04:59;;;;;;;36.40;21.20;;;;;;;3.59;74.31;100320.64;103150;1326;37767;-70
2022/12/21 09:07:34;;;;;;;36.80;21.00;;;;;;;3.59;74.07;100313.91;103198;1326;37479;-71
2022/12/21 09:10:11;;;;;;;39.30;22.80;;;;;;;3.58;73.77;100308.75;102992;1332;37544;-70
2022/12/21 09:12:50;;;;;;;37.40;21.40;;;;;;;3.59;73.79;100307.19;103128;1330;37629;-71
2022/12/21 09:15:26;;;;;;;34.80;20.40;;;;;;;3.62;73.91;100300.61;103116;1329;37523;-72
2022/12/21 09:18:09;;;;;;;32.00;19.40;;;;;;;3.70;74.02;100289.81;103068;1326;37200;-70
2022/12/21 09:20:44;;;;;;;37.00;21.30;;;;;;;3.79;74.00;100288.16;103100;1326;37220;-72
2022/12/21 09:23:19;;;;;;;34.70;21.90;;;;;;;3.88;73.71;100286.66;103095;1326;38573;-71
2022/12/21 09:25:55;;;;;;;36.40;21.30;;;;;;;3.94;73.53;100289.54;103128;1325;37207;-70
2022/12/21 09:28:35;;;;;;;36.30;21.90;;;;;;;3.98;73.91;100288.09;103162;1326;37116;-70
2022/12/21 09:31:15;;;;;;;35.90;20.30;;;;;;;4.02;73.68;100284.95;103158;1329;37128;-69
2022/12/21 09:33:53;;;;;;;34.00;19.90;;;;;;;4.05;73.32;100285.09;103176;1329;37220;-70
2022/12/21 09:36:32;;;;;;;37.30;22.10;;;;;;;4.07;73.23;100288.85;103172;1326;37118;-71
2022/12/21 09:39:09;;;;;;;37.20;23.60;;;;;;;4.08;73.01;100296.60;103179;1330;38447;-73
2022/12/21 09:42:00;;;;;;;37.40;21.70;;;;;;;4.12;73.21;100296.55;103190;1329;38383;-73
2022/12/21 09:44:59;;;;;;;36.10;21.00;;;;;;;4.17;73.05;100290.45;103156;1326;37032;-72
2022/12/21 09:47:43;;;;;;;37.10;21.60;;;;;;;4.24;73.07;100292.44;103190;1326;37244;-71
2022/12/21 09:50:25;;;;;;;38.80;23.10;;;;;;;4.26;72.44;100297.41;103142;1329;37309;-70
2022/12/21 09:53:04;;;;;;;39.40;22.50;;;;;;;4.28;72.37;100295.14;103120;1326;38340;-72
2022/12/21 09:55:45;;;;;;;38.40;23.30;;;;;;;4.28;72.41;100293.23;103093;1326;36375;-72
2022/12/21 09:58:24;;;;;;;35.50;21.80;;;;;;;4.29;72.22;100287.54;103125;1329;37318;-72
2022/12/21 10:01:03;;;;;;;35.30;20.60;;;;;;;4.32;72.39;100280.92;103103;1329;37128;-71
2022/12/21 10:03:41;;;;;;;;;;;;;;;4.32;71.95;100281.95;103142;1326;37452;-73
2022/12/21 10:06:31;;;;;;;36.60;21.60;;;;;;;4.29;71.96;100279.77;103040;1326;187791;-72
2022/12/21 10:09:34;;;;;;;37.20;22.50;;;;;;;4.36;72.07;100277.59;103128;1326;37819;-72
2022/12/21 10:12:21;;;;;;;34.40;20.70;;;;;;;4.48;72.52;100275.52;103075;1329;37303;-71
2022/12/21 10:15:04;;;;;;;36.80;21.90;;;;;;;4.57;72.10;100280.04;103119;1329;36652;-73
2022/12/21 10:17:50;;;;;;;33.00;20.00;;;;;;;4.62;71.94;100273.40;103142;1329;37600;-73
2022/12/21 10:20:34;;;;;;;34.50;21.40;;;;;;;4.69;72.02;100275.20;103159;1326;37241;-71
2022/12/21 10:23:25;;;;;;;35.70;20.40;;;;;;;4.73;71.15;100280.85;103137;1326;38302;-71
2022/12/21 10:26:07;;;;;;;35.70;22.00;;;;;;;4.73;71.20;100272.55;103169;1329;38282;-71
2022/12/21 10:28:46;;;;;;;37.10;22.60;;;;;;;4.75;71.04;100265.95;103163;1329;38612;-71
2022/12/21 10:31:25;;;;;;;35.30;20.60;;;;;;;4.76;71.15;100266.61;103132;1316;37105;-72
2022/12/21 10:34:00;;;;;;;33.00;19.10;;;;;;;4.81;71.36;100262.05;103169;1329;37219;-71
2022/12/21 10:36:38;;;;;;;34.90;21.60;;;;;;;4.89;71.20;100265.21;103119;1329;37300;-72
2022/12/21 10:39:17;;;;;;;35.60;20.70;;;;;;;4.92;70.77;100264.96;103111;1329;36121;-71
2022/12/21 10:41:55;;;;;;;32.80;21.20;;;;;;;4.98;70.55;100260.57;103107;1329;36460;-73
2022/12/21 10:44:28;;;;;;;34.60;22.10;;;;;;;5.00;70.12;100259.83;103115;1326;36499;-72
2022/12/21 10:47:19;;;;;;;35.90;21.70;;;;;;;5.05;70.31;100257.15;103088;1329;37551;-72
2022/12/21 10:49:59;;;;;;;32.80;20.20;;;;;;;5.15;70.50;100251.27;103118;1329;38336;-71
2022/12/21 10:52:49;;;;;;;33.50;21.10;;;;;;;5.25;70.88;100253.52;103126;1329;37212;-73
2022/12/21 10:55:36;;;;;;;37.20;21.00;;;;;;;5.35;70.66;100256.09;102988;1331;37208;-71
2022/12/21 10:58:26;;;;;;;37.50;22.80;;;;;;;5.44;70.28;100249.52;103148;1329;37118;-72
2022/12/21 11:01:10;;;;;;;38.50;23.00;;;;;;;5.48;69.95;100248.61;103128;1329;37112;-73
2022/12/21 11:03:47;;;;;;;36.80;20.90;;;;;;;5.48;69.75;100252.39;103063;1329;186508;-71
2022/12/21 11:06:26;;;;;;;34.50;21.00;;;;;;;5.46;69.79;100252.42;103173;1325;37134;-70
2022/12/21 11:09:09;;;;;;;34.70;21.30;;;;;;;5.46;69.56;100249.49;103112;1329;38328;-71
2022/12/21 11:11:47;;;;;;;38.10;22.10;;;;;;;5.44;69.37;100247.45;103031;1326;174897;-73
2022/12/21 11:14:26;;;;;;;36.40;21.80;;;;;;;5.40;69.28;100246.49;103160;1326;38284;-73
2022/12/21 11:17:12;;;;;;;37.90;22.30;;;;;;;5.34;68.83;100244.17;103191;1329;38315;-70
2022/12/21 11:19:58;;;;;;;35.90;21.80;;;;;;;5.27;69.06;100239.98;103133;1326;37339;-71
2022/12/21 11:22:33;;;;;;;34.60;20.80;;;;;;;5.19;68.72;100243.59;103139;1330;38335;-71
2022/12/21 11:25:16;;;;;;;37.60;21.80;;;;;;;5.13;68.94;100242.30;103137;1329;37118;-71
2022/12/21 11:27:55;;;;;;;39.20;23.00;;;;;;;5.12;69.16;100241.29;103175;1329;36297;-70
2022/12/21 11:30:34;;;;;;;40.20;24.50;;;;;;;5.09;69.04;100239.09;103140;1326;36466;-72
2022/12/21 11:33:21;;;;;;;36.00;22.50;;;;;;;5.08;69.44;100243.80;103124;1329;37354;-70
2022/12/21 11:36:15;;;;;;;39.30;22.50;;;;;;;5.14;69.75;100242.30;103139;1329;38605;-70
2022/12/21 11:38:56;;;;;;;38.70;22.80;;;;;;;5.20;69.68;100247.90;103105;1326;174998;-72
2022/12/21 11:41:36;;;;;;;39.00;22.90;;;;;;;5.23;69.54;100241.61;103160;1329;37194;-71
2022/12/21 11:44:23;;;;;;;37.10;23.50;;;;;;;5.21;69.27;100241.83;103146;1326;37211;-71
2022/12/21 11:47:14;;;;;;;40.90;23.40;;;;;;;5.18;69.42;100241.71;103127;1329;37236;-72
2022/12/21 11:50:09;;;;;;;;;;;;;;;5.19;69.60;100238.23;103171;1329;37201;-73
2022/12/21 11:53:07;;;;;;;33.00;20.30;;;;;;;5.14;69.57;100240.05;103171;1326;37512;-72
2022/12/21 11:55:50;;;;;;;35.80;22.50;;;;;;;5.13;69.50;100240.23;103000;1327;174956;-71
2022/12/21 11:58:34;;;;;;;36.80;22.60;;;;;;;5.15;69.62;100233.80;103140;1325;37209;-69
2022/12/21 12:01:19;;;;;;;36.40;22.20;;;;;;;5.20;69.88;100227.15;103097;1326;37238;-71
2022/12/21 12:04:05;;;;;;;38.20;21.60;;;;;;;5.27;69.80;100224.08;103119;1326;37282;-70
2022/12/21 12:07:03;;;;;;;33.10;20.60;;;;;;;5.34;69.82;100224.81;103088;1329;36367;-73
2022/12/21 12:10:09;;;;;;;37.70;21.50;;;;;;;5.36;69.63;100224.77;103117;1326;37207;-70
2022/12/21 12:12:50;;;;;;;37.20;21.80;;;;;;;5.32;69.33;100218.96;103117;1325;37102;-71
2022/12/21 12:15:39;;;;;;;35.70;21.80;;;;;;;5.29;68.71;100212.09;103088;1326;37472;-72
2022/12/21 12:18:36;;;;;;;36.90;21.30;;;;;;;5.25;68.92;100201.11;103098;1330;37694;-72